createdAt,value
2023-03-16T00:02:06.189Z,9.41
2023-03-16T00:04:37.485Z,9.49
2023-03-16T00:07:09.467Z,9.49
2023-03-16T00:09:40.942Z,9.43
2023-03-16T00:12:18.566Z,9.44
2023-03-16T00:14:47.528Z,9.50
2023-03-16T00:17:20.209Z,9.30
2023-03-16T00:19:55.578Z,9.43
2023-03-16T00:22:24.810Z,9.39
2023-03-16T00:24:52.684Z,9.44
2023-03-16T00:27:20.094Z,9.47
2023-03-16T00:29:48.236Z,9.49
2023-03-16T00:32:20.008Z,9.40
2023-03-16T00:34:47.665Z,9.39
2023-03-16T00:37:16.788Z,9.37
2023-03-16T00:39:44.613Z,9.18
2023-03-16T00:42:12.633Z,9.25
2023-03-16T00:44:39.465Z,8.76
2023-03-16T00:47:07.885Z,9.16
2023-03-16T00:49:36.056Z,9.24
2023-03-16T00:52:07.142Z,9.08
2023-03-16T00:54:33.888Z,9.16
2023-03-16T00:57:01.752Z,9.23
2023-03-16T00:59:29.401Z,9.29
2023-03-16T01:01:56.339Z,9.22
2023-03-16T01:04:23.191Z,9.19
2023-03-16T01:06:51.784Z,8.78
2023-03-16T01:09:18.343Z,9.01
2023-03-16T01:11:45.338Z,9.11
2023-03-16T01:14:12.138Z,9.05
2023-03-16T01:16:38.913Z,9.02
2023-03-16T01:19:05.497Z,9.10
2023-03-16T01:21:33.824Z,7.27
2023-03-16T01:24:00.548Z,9.26
2023-03-16T01:26:28.050Z,9.22
2023-03-16T01:28:55.004Z,9.20
2023-03-16T01:31:22.060Z,9.20
2023-03-16T01:33:48.689Z,8.80
2023-03-16T01:36:18.083Z,9.32
2023-03-16T01:38:45.112Z,9.41
2023-03-16T01:41:12.634Z,9.11
2023-03-16T01:43:40.636Z,9.37
2023-03-16T01:46:07.228Z,9.32
2023-03-16T01:49:01.982Z,9.18
2023-03-16T01:51:43.024Z,9.21
2023-03-16T01:54:22.034Z,9.17
2023-03-16T01:56:55.573Z,9.29
2023-03-16T01:59:27.623Z,9.34
2023-03-16T02:01:55.529Z,9.22
2023-03-16T02:04:46.578Z,9.16
2023-03-16T02:07:17.185Z,9.11
2023-03-16T02:09:47.191Z,8.50
2023-03-16T02:12:19.186Z,8.78
2023-03-16T02:14:46.916Z,9.02
2023-03-16T02:17:20.953Z,9.12
2023-03-16T02:19:59.618Z,9.16
2023-03-16T02:22:26.278Z,9.16
2023-03-16T02:24:53.914Z,9.23
2023-03-16T02:27:41.243Z,9.30
2023-03-16T02:30:14.056Z,8.97
2023-03-16T02:32:42.420Z,9.31
2023-03-16T02:35:12.999Z,9.30
2023-03-16T02:37:41.827Z,9.31
2023-03-16T02:40:24.270Z,9.31
2023-03-16T02:42:55.833Z,9.34
2023-03-16T02:45:27.892Z,9.35
2023-03-16T02:47:55.266Z,9.45
2023-03-16T02:50:21.882Z,9.39
2023-03-16T02:52:48.657Z,9.47
2023-03-16T02:55:15.705Z,9.00
2023-03-16T02:57:42.299Z,9.39
2023-03-16T03:00:17.148Z,9.33
2023-03-16T03:02:44.238Z,9.56
2023-03-16T03:05:11.644Z,9.56
2023-03-16T03:07:38.547Z,9.61
2023-03-16T03:10:06.864Z,9.65
2023-03-16T03:12:34.152Z,9.71
2023-03-16T03:15:00.786Z,9.55
2023-03-16T03:17:30.269Z,9.31
2023-03-16T03:20:02.400Z,9.74
2023-03-16T03:22:28.972Z,9.77
2023-03-16T03:24:55.599Z,9.37
2023-03-16T03:27:22.642Z,9.70
2023-03-16T03:29:49.364Z,9.28
2023-03-16T03:32:15.976Z,9.79
2023-03-16T03:34:42.678Z,9.82
2023-03-16T03:37:09.316Z,9.90
2023-03-16T03:39:36.060Z,9.89
2023-03-16T03:42:03.070Z,9.78
2023-03-16T03:44:29.694Z,9.87
2023-03-16T03:46:56.376Z,9.48
2023-03-16T03:49:22.979Z,9.75
2023-03-16T03:51:49.561Z,9.71
2023-03-16T03:54:16.177Z,9.66
2023-03-16T03:56:43.184Z,9.34
2023-03-16T03:59:09.786Z,9.52
2023-03-16T04:01:36.428Z,9.39
2023-03-16T04:04:02.992Z,9.49
2023-03-16T04:06:29.624Z,9.39
2023-03-16T04:08:56.711Z,9.39
2023-03-16T04:11:23.280Z,9.26
2023-03-16T04:13:53.414Z,9.22
2023-03-16T04:16:20.976Z,9.27
2023-03-16T04:18:47.837Z,9.20
2023-03-16T04:21:16.776Z,9.15
2023-03-16T04:23:44.029Z,9.31
2023-03-16T04:26:11.185Z,9.47
2023-03-16T04:28:37.867Z,9.20
2023-03-16T04:31:07.248Z,9.50
2023-03-16T04:33:38.632Z,9.09
2023-03-16T04:36:06.727Z,9.38
2023-03-16T04:38:34.319Z,9.32
2023-03-16T04:41:02.716Z,9.42
2023-03-16T04:43:30.477Z,9.39
2023-03-16T04:45:57.128Z,9.34
2023-03-16T04:48:24.038Z,9.10
2023-03-16T04:50:51.448Z,9.31
2023-03-16T04:53:18.046Z,9.14
2023-03-16T04:55:46.246Z,6.14
2023-03-16T04:58:13.898Z,8.85
2023-03-16T05:00:41.608Z,9.12
2023-03-16T05:03:10.401Z,9.14
2023-03-16T05:05:38.791Z,8.60
2023-03-16T05:08:06.570Z,9.16
2023-03-16T05:10:34.557Z,8.85
2023-03-16T05:13:01.244Z,9.23
2023-03-16T05:15:28.106Z,9.29
2023-03-16T05:17:58.566Z,9.38
2023-03-16T05:20:25.560Z,9.42
2023-03-16T05:22:52.607Z,9.36
2023-03-16T05:25:20.201Z,9.44
2023-03-16T05:27:50.413Z,9.48
2023-03-16T05:30:18.471Z,9.42
2023-03-16T05:32:45.370Z,9.17
2023-03-16T05:35:13.764Z,9.10
2023-03-16T05:37:41.594Z,9.11
2023-03-16T05:40:17.339Z,9.60
2023-03-16T05:42:48.016Z,9.50
2023-03-16T05:45:15.959Z,9.68
2023-03-16T05:47:43.918Z,9.51
2023-03-16T05:50:12.744Z,9.57
2023-03-16T05:52:40.181Z,9.18
2023-03-16T05:55:08.751Z,9.50
2023-03-16T05:57:35.491Z,9.61
2023-03-16T06:00:13.171Z,9.56
2023-03-16T06:02:40.109Z,9.55
2023-03-16T06:05:07.579Z,9.69
2023-03-16T06:07:34.970Z,9.80
2023-03-16T06:10:01.793Z,8.87
2023-03-16T06:12:28.423Z,9.98
2023-03-16T06:14:55.026Z,9.44
2023-03-16T06:17:21.604Z,10.03
2023-03-16T06:19:48.343Z,9.76
2023-03-16T06:22:15.011Z,10.09
2023-03-16T06:24:41.793Z,10.17
2023-03-16T06:27:08.426Z,10.36
2023-03-16T06:29:35.247Z,10.31
2023-03-16T06:32:01.991Z,10.11
2023-03-16T06:34:28.664Z,10.23
2023-03-16T06:36:55.273Z,10.29
2023-03-16T06:39:21.929Z,10.04
2023-03-16T06:41:48.482Z,10.43
2023-03-16T06:44:15.057Z,9.72
2023-03-16T06:46:41.760Z,10.12
2023-03-16T06:49:08.440Z,10.06
2023-03-16T06:51:35.056Z,10.89
2023-03-16T06:54:01.752Z,10.99
2023-03-16T06:56:28.439Z,11.05
2023-03-16T06:58:55.168Z,10.34
2023-03-16T07:01:23.051Z,10.88
2023-03-16T07:03:49.890Z,10.75
2023-03-16T07:06:17.201Z,11.05
2023-03-16T07:08:43.854Z,11.06
2023-03-16T07:11:10.462Z,11.27
2023-03-16T07:13:37.617Z,10.88
2023-03-16T07:16:05.021Z,11.38
2023-03-16T07:18:31.847Z,11.48
2023-03-16T07:20:58.881Z,11.38
2023-03-16T07:23:25.794Z,9.91
2023-03-16T07:25:52.877Z,12.18
2023-03-16T07:28:19.932Z,11.31
2023-03-16T07:31:02.408Z,12.32
2023-03-16T07:33:30.358Z,12.45
2023-03-16T07:35:56.984Z,11.76
2023-03-16T07:38:23.662Z,12.49
2023-03-16T07:40:52.295Z,12.63
2023-03-16T07:43:18.903Z,12.38
2023-03-16T07:45:50.238Z,12.75
2023-03-16T07:48:17.901Z,12.73
2023-03-16T07:50:46.765Z,12.59
2023-03-16T07:53:14.530Z,11.62
2023-03-16T07:55:42.854Z,12.23
2023-03-16T07:58:10.805Z,12.46
2023-03-16T08:00:38.081Z,12.04
2023-03-16T08:03:04.753Z,11.41
2023-03-16T08:05:34.478Z,11.65
2023-03-16T08:08:01.937Z,11.07
2023-03-16T08:10:29.692Z,11.41
2023-03-16T08:12:56.792Z,11.08
2023-03-16T08:15:25.044Z,11.31
2023-03-16T08:17:52.523Z,11.31
2023-03-16T08:20:19.339Z,11.10
2023-03-16T08:22:46.820Z,10.73
2023-03-16T08:25:15.349Z,11.04
2023-03-16T08:27:43.070Z,11.16
2023-03-16T08:30:13.153Z,11.07
2023-03-16T08:32:41.182Z,11.12
2023-03-16T08:35:14.028Z,11.15
2023-03-16T08:37:41.608Z,10.82
2023-03-16T08:40:13.429Z,10.84
2023-03-16T08:42:40.239Z,11.48
2023-03-16T08:45:12.351Z,11.58
2023-03-16T08:47:40.650Z,11.82
2023-03-16T08:50:09.245Z,9.93
2023-03-16T08:52:38.872Z,12.06
2023-03-16T08:55:07.147Z,12.08
2023-03-16T08:57:33.933Z,12.44
2023-03-16T09:00:01.524Z,12.59
2023-03-16T09:02:28.162Z,12.86
2023-03-16T09:04:54.850Z,12.57
2023-03-16T09:07:21.993Z,11.14
2023-03-16T09:09:48.719Z,8.45
2023-03-16T09:12:15.360Z,10.51
2023-03-16T09:14:42.023Z,10.86
2023-03-16T09:17:08.591Z,10.68
2023-03-16T09:19:50.497Z,10.99
2023-03-16T09:22:18.531Z,10.62
2023-03-16T09:24:45.223Z,10.38
2023-03-16T09:27:12.197Z,10.72
2023-03-16T09:29:38.848Z,11.24
2023-03-16T09:32:06.152Z,8.21
2023-03-16T09:34:33.408Z,10.58
2023-03-16T09:37:00.596Z,11.81
2023-03-16T09:39:27.658Z,12.57
2023-03-16T09:42:02.779Z,12.53
2023-03-16T09:44:32.432Z,12.38
2023-03-16T09:47:01.991Z,12.20
2023-03-16T09:49:36.427Z,11.84
2023-03-16T09:52:21.324Z,13.19
2023-03-16T09:54:59.809Z,13.54
2023-03-16T09:57:28.495Z,13.74
2023-03-16T10:00:10.737Z,14.22
2023-03-16T10:02:56.065Z,14.28
2023-03-16T10:05:24.336Z,14.72
2023-03-16T10:08:15.538Z,14.46
2023-03-16T10:11:13.572Z,13.83
2023-03-16T10:14:03.236Z,13.73
2023-03-16T10:16:38.302Z,13.81
2023-03-16T10:19:13.542Z,13.03
2023-03-16T10:21:41.969Z,12.90
2023-03-16T10:24:27.176Z,13.45
2023-03-16T10:27:00.696Z,14.13
2023-03-16T10:29:32.209Z,14.01
2023-03-16T10:32:12.739Z,13.74
2023-03-16T10:34:39.366Z,14.21
2023-03-16T10:37:06.173Z,14.23
2023-03-16T10:39:37.147Z,14.57
2023-03-16T10:42:03.804Z,15.59
2023-03-16T10:44:30.813Z,16.03
2023-03-16T10:47:06.233Z,16.15
2023-03-16T10:49:42.298Z,15.32
2023-03-16T10:52:29.292Z,15.01
2023-03-16T10:55:02.543Z,14.58
2023-03-16T10:57:35.218Z,14.69
2023-03-16T11:00:28.997Z,13.25
2023-03-16T11:02:58.426Z,15.48
2023-03-16T11:05:31.493Z,14.13
2023-03-16T11:08:10.717Z,14.90
2023-03-16T11:10:49.335Z,11.69
2023-03-16T11:13:19.489Z,15.04
2023-03-16T11:15:55.944Z,15.30
2023-03-16T11:18:45.092Z,14.40
2023-03-16T11:21:17.414Z,15.06
2023-03-16T11:23:51.340Z,14.50
2023-03-16T11:26:25.280Z,13.97
2023-03-16T11:29:03.706Z,12.84
2023-03-16T11:31:50.701Z,12.60
2023-03-16T11:34:20.076Z,12.82
2023-03-16T11:37:00.006Z,13.00
2023-03-16T11:39:40.421Z,13.11
2023-03-16T11:42:30.791Z,13.45
2023-03-16T11:45:26.012Z,13.35
2023-03-16T11:48:19.836Z,13.19
2023-03-16T11:51:04.435Z,13.03
2023-03-16T11:53:48.499Z,12.14
2023-03-16T11:56:30.781Z,12.76
2023-03-16T11:58:57.509Z,12.86
2023-03-16T12:01:43.057Z,12.55
2023-03-16T12:04:36.966Z,11.77
2023-03-16T12:07:22.303Z,11.83
2023-03-16T12:09:58.522Z,11.83
2023-03-16T12:12:51.659Z,11.72
2023-03-16T12:15:30.025Z,11.65
2023-03-16T12:18:09.712Z,11.57
2023-03-16T12:20:57.127Z,11.07
2023-03-16T12:23:35.985Z,9.03
2023-03-16T12:26:03.794Z,10.77
2023-03-16T12:28:33.495Z,11.23
2023-03-16T12:31:09.496Z,11.38
2023-03-16T12:33:46.478Z,11.28
2023-03-16T12:36:16.935Z,11.58
2023-03-16T12:39:05.257Z,10.82
2023-03-16T12:41:44.180Z,10.97
2023-03-16T12:44:17.963Z,11.24
2023-03-16T12:47:08.915Z,11.22
2023-03-16T12:49:37.188Z,11.60
2023-03-16T12:52:10.193Z,11.89
2023-03-16T12:54:48.941Z,12.21
2023-03-16T12:57:17.109Z,12.26
2023-03-16T12:59:52.986Z,12.35
2023-03-16T13:02:26.588Z,12.04
2023-03-16T13:05:00.538Z,12.06
2023-03-16T13:07:31.191Z,11.55
2023-03-16T13:10:01.880Z,12.15
2023-03-16T13:12:37.022Z,11.99
2023-03-16T13:15:19.451Z,12.07
2023-03-16T13:17:48.519Z,12.01
2023-03-16T13:20:31.166Z,11.92
2023-03-16T13:23:08.217Z,11.95
2023-03-16T13:25:42.011Z,11.83
2023-03-16T13:28:14.030Z,11.62
2023-03-16T13:30:48.568Z,11.63
2023-03-16T13:33:27.278Z,11.73
2023-03-16T13:35:57.457Z,11.72
2023-03-16T13:38:27.622Z,11.75
2023-03-16T13:40:57.506Z,11.78
2023-03-16T13:43:29.847Z,11.52
2023-03-16T13:45:56.615Z,11.55
2023-03-16T13:48:23.471Z,11.94
2023-03-16T13:50:57.964Z,11.66
2023-03-16T13:53:30.357Z,10.97
2023-03-16T13:56:00.148Z,11.17
2023-03-16T13:58:35.293Z,11.16
2023-03-16T14:01:03.970Z,11.29
2023-03-16T14:03:42.588Z,11.08
2023-03-16T14:06:22.621Z,11.01
2023-03-16T14:08:53.972Z,11.20
2023-03-16T14:11:20.845Z,11.06
2023-03-16T14:13:53.957Z,11.66
2023-03-16T14:16:24.345Z,11.79
2023-03-16T14:19:00.950Z,11.71
2023-03-16T14:21:30.189Z,11.78
2023-03-16T14:24:05.875Z,11.95
2023-03-16T14:26:44.032Z,12.10
2023-03-16T14:29:30.553Z,11.91
2023-03-16T14:31:58.911Z,11.94
2023-03-16T14:34:38.526Z,11.63
2023-03-16T14:37:10.378Z,11.30
2023-03-16T14:39:37.845Z,10.24
2023-03-16T14:42:06.815Z,10.79
2023-03-16T14:44:36.943Z,10.38
2023-03-16T14:47:05.077Z,10.51
2023-03-16T14:49:34.908Z,10.65
2023-03-16T14:52:17.470Z,10.91
2023-03-16T14:54:44.033Z,10.32
2023-03-16T14:57:17.150Z,10.16
2023-03-16T14:59:43.827Z,9.63
2023-03-16T15:02:28.575Z,9.24
2023-03-16T15:04:57.045Z,9.51
2023-03-16T15:07:28.570Z,9.50
2023-03-16T15:09:59.716Z,9.92
2023-03-16T15:12:26.652Z,10.07
2023-03-16T15:15:11.944Z,10.43
2023-03-16T15:17:39.009Z,10.69
2023-03-16T15:20:07.265Z,10.13
2023-03-16T15:22:37.178Z,9.88
2023-03-16T15:25:26.252Z,10.10
2023-03-16T15:27:54.313Z,10.38
2023-03-16T15:30:24.486Z,10.27
2023-03-16T15:32:51.589Z,10.48
2023-03-16T15:35:18.773Z,10.19
2023-03-16T15:37:45.653Z,10.66
2023-03-16T15:40:20.611Z,10.71
2023-03-16T15:42:47.240Z,10.64
2023-03-16T15:45:18.002Z,10.35
2023-03-16T15:47:45.157Z,10.33
2023-03-16T15:50:13.998Z,10.53
2023-03-16T15:52:44.393Z,10.25
2023-03-16T15:55:23.472Z,9.93
2023-03-16T15:57:58.768Z,10.14
2023-03-16T16:00:33.193Z,10.20
2023-03-16T16:03:02.244Z,10.14
2023-03-16T16:05:31.020Z,10.07
2023-03-16T16:07:58.406Z,10.09
2023-03-16T16:10:27.087Z,9.73
2023-03-16T16:12:55.907Z,10.17
2023-03-16T16:15:32.583Z,9.83
2023-03-16T16:18:20.303Z,9.90
2023-03-16T16:20:46.651Z,9.85
2023-03-16T16:23:13.955Z,9.76
2023-03-16T16:25:42.473Z,9.96
2023-03-16T16:28:18.887Z,9.73
2023-03-16T16:30:46.326Z,9.73
2023-03-16T16:33:30.586Z,9.77
2023-03-16T16:36:03.452Z,9.70
2023-03-16T16:38:31.686Z,9.62
2023-03-16T16:41:01.810Z,9.59
2023-03-16T16:43:28.439Z,9.57
2023-03-16T16:45:55.403Z,9.57
2023-03-16T16:48:31.848Z,9.48
2023-03-16T16:51:00.542Z,9.21
2023-03-16T16:53:28.097Z,9.18
2023-03-16T16:55:55.844Z,8.86
2023-03-16T16:58:24.875Z,9.16
2023-03-16T17:00:55.030Z,8.31
2023-03-16T17:03:28.412Z,9.15
2023-03-16T17:05:56.796Z,9.06
2023-03-16T17:08:24.600Z,8.38
2023-03-16T17:10:53.264Z,8.83
2023-03-16T17:13:40.767Z,8.83
2023-03-16T17:16:17.222Z,8.89
2023-03-16T17:18:45.443Z,8.97
2023-03-16T17:21:17.404Z,8.96
2023-03-16T17:23:44.683Z,8.95
2023-03-16T17:26:19.247Z,9.00
2023-03-16T17:28:50.445Z,9.02
2023-03-16T17:31:21.551Z,8.43
2023-03-16T17:33:48.313Z,8.93
2023-03-16T17:36:19.064Z,9.07
2023-03-16T17:38:45.631Z,8.45
2023-03-16T17:41:33.073Z,8.97
2023-03-16T17:44:04.932Z,8.70
2023-03-16T17:46:31.813Z,8.74
2023-03-16T17:49:00.175Z,8.50
2023-03-16T17:51:27.310Z,8.24
2023-03-16T17:53:54.721Z,8.64
2023-03-16T17:56:24.614Z,8.62
2023-03-16T17:58:54.027Z,8.44
2023-03-16T18:01:24.061Z,8.41
2023-03-16T18:03:50.722Z,8.42
2023-03-16T18:06:21.019Z,8.47
2023-03-16T18:08:51.143Z,8.61
2023-03-16T18:11:25.336Z,8.75
2023-03-16T18:13:52.369Z,8.61
2023-03-16T18:16:28.156Z,8.87
2023-03-16T18:18:59.003Z,8.70
2023-03-16T18:21:27.106Z,8.75
2023-03-16T18:23:54.377Z,8.87
2023-03-16T18:26:23.670Z,8.65
2023-03-16T18:28:52.484Z,8.16
2023-03-16T18:31:29.601Z,8.45
2023-03-16T18:34:00.692Z,7.82
2023-03-16T18:36:31.447Z,8.09
2023-03-16T18:39:01.645Z,8.27
2023-03-16T18:41:33.749Z,7.72
2023-03-16T18:44:06.113Z,7.60
2023-03-16T18:46:35.518Z,7.68
2023-03-16T18:49:10.530Z,7.47
2023-03-16T18:51:37.508Z,7.51
2023-03-16T18:54:06.386Z,7.09
2023-03-16T18:56:33.022Z,7.05
2023-03-16T18:58:59.642Z,7.52
2023-03-16T19:01:32.319Z,7.29
2023-03-16T19:04:01.312Z,7.16
2023-03-16T19:06:35.719Z,7.10
2023-03-16T19:09:13.970Z,7.29
2023-03-16T19:11:44.246Z,7.33
2023-03-16T19:14:17.423Z,7.41
2023-03-16T19:16:45.242Z,7.38
2023-03-16T19:19:13.195Z,7.43
2023-03-16T19:21:39.984Z,7.25
2023-03-16T19:24:08.378Z,7.76
2023-03-16T19:26:39.073Z,7.55
2023-03-16T19:29:05.900Z,7.48
2023-03-16T19:31:33.592Z,7.03
2023-03-16T19:34:00.296Z,7.68
2023-03-16T19:36:31.937Z,7.84
2023-03-16T19:38:58.888Z,6.97
2023-03-16T19:41:37.742Z,7.40
2023-03-16T19:44:08.692Z,7.72
2023-03-16T19:46:35.444Z,4.65
2023-03-16T19:49:02.053Z,7.07
2023-03-16T19:51:29.995Z,6.96
2023-03-16T19:53:59.128Z,7.02
2023-03-16T19:56:27.659Z,7.32
2023-03-16T19:58:55.642Z,7.37
2023-03-16T20:01:30.324Z,7.31
2023-03-16T20:03:59.666Z,7.34
2023-03-16T20:06:27.232Z,6.64
2023-03-16T20:08:53.869Z,7.62
2023-03-16T20:11:31.677Z,7.84
2023-03-16T20:13:59.679Z,7.75
2023-03-16T20:16:30.050Z,7.98
2023-03-16T20:18:59.501Z,8.03
2023-03-16T20:21:27.525Z,8.08
2023-03-16T20:23:54.636Z,8.15
2023-03-16T20:26:24.546Z,8.39
2023-03-16T20:28:52.106Z,8.32
2023-03-16T20:31:34.700Z,8.25
2023-03-16T20:34:01.679Z,8.38
2023-03-16T20:36:33.236Z,7.54
2023-03-16T20:38:59.849Z,8.02
2023-03-16T20:41:29.504Z,7.95
2023-03-16T20:43:58.573Z,7.67
2023-03-16T20:46:28.818Z,7.69
2023-03-16T20:48:56.206Z,7.66
2023-03-16T20:51:23.395Z,7.34
2023-03-16T20:53:50.722Z,6.90
2023-03-16T20:56:22.908Z,7.11
2023-03-16T20:58:51.310Z,7.16
2023-03-16T21:01:21.288Z,6.94
2023-03-16T21:03:50.783Z,6.98
2023-03-16T21:06:28.533Z,7.08
2023-03-16T21:08:57.239Z,7.11
2023-03-16T21:11:34.822Z,7.27
2023-03-16T21:14:01.645Z,7.52
2023-03-16T21:16:29.122Z,7.14
2023-03-16T21:18:56.128Z,7.21
2023-03-16T21:21:23.449Z,7.48
2023-03-16T21:23:50.538Z,7.09
2023-03-16T21:26:20.793Z,7.25
2023-03-16T21:29:18.526Z,7.64
2023-03-16T21:31:45.094Z,7.70
2023-03-16T21:34:23.819Z,7.79
2023-03-16T21:36:50.679Z,7.38
2023-03-16T21:39:23.772Z,7.29
2023-03-16T21:41:50.869Z,7.88
2023-03-16T21:44:18.486Z,7.28
2023-03-16T21:46:46.782Z,6.82
2023-03-16T21:49:14.316Z,6.91
2023-03-16T21:51:43.185Z,7.17
2023-03-16T21:54:14.894Z,7.07
2023-03-16T21:56:42.336Z,7.34
2023-03-16T21:59:09.331Z,7.37
2023-03-16T22:01:42.840Z,4.65
2023-03-16T22:04:17.867Z,6.67
2023-03-16T22:06:45.407Z,6.85
2023-03-16T22:09:19.339Z,6.52
2023-03-16T22:11:45.976Z,6.82
2023-03-16T22:14:12.725Z,6.80
2023-03-16T22:16:40.891Z,6.76
2023-03-16T22:19:13.447Z,6.18
2023-03-16T22:21:44.614Z,6.24
2023-03-16T22:24:17.738Z,6.39
2023-03-16T22:26:44.647Z,6.48
2023-03-16T22:29:29.548Z,6.19
2023-03-16T22:31:59.526Z,6.54
2023-03-16T22:34:31.461Z,6.70
2023-03-16T22:36:58.733Z,6.87
2023-03-16T22:39:25.611Z,6.93
2023-03-16T22:41:52.316Z,6.47
2023-03-16T22:44:22.676Z,6.51
2023-03-16T22:46:50.786Z,6.02
2023-03-16T22:49:27.155Z,6.35
2023-03-16T22:51:56.842Z,7.01
2023-03-16T22:54:28.708Z,6.87
2023-03-16T22:56:55.611Z,7.00
2023-03-16T22:59:25.276Z,6.89
2023-03-16T23:01:52.132Z,6.71
2023-03-16T23:04:22.286Z,6.78
2023-03-16T23:06:51.458Z,6.64
2023-03-16T23:09:20.460Z,6.53
2023-03-16T23:11:49.089Z,6.83
2023-03-16T23:14:20.415Z,6.86
2023-03-16T23:16:48.428Z,6.72
2023-03-16T23:19:26.131Z,7.08
2023-03-16T23:21:55.081Z,6.81
2023-03-16T23:24:22.162Z,6.64
2023-03-16T23:26:49.994Z,6.19
2023-03-16T23:29:16.770Z,6.37
2023-03-16T23:31:43.328Z,5.84
2023-03-16T23:34:15.481Z,5.86
2023-03-16T23:36:43.304Z,5.91
2023-03-16T23:39:11.032Z,6.06
2023-03-16T23:41:39.697Z,5.35
2023-03-16T23:44:07.809Z,5.39
2023-03-16T23:46:35.501Z,5.23
2023-03-16T23:49:04.546Z,5.74
2023-03-16T23:51:36.101Z,5.41
2023-03-16T23:54:15.922Z,5.68
2023-03-16T23:56:42.486Z,5.32
2023-03-16T23:59:09.291Z,5.49
